createdAt,value
2018-07-09T00:00:49.880Z,100194.73
2018-07-09T00:03:15.871Z,100190.89
2018-07-09T00:05:41.819Z,100194.42
2018-07-09T00:08:07.765Z,100195.22
2018-07-09T00:10:33.730Z,100187.94
2018-07-09T00:12:59.696Z,100190.09
2018-07-09T00:15:25.664Z,100184.62
2018-07-09T00:17:51.624Z,100186.59
2018-07-09T00:20:17.590Z,100186.44
2018-07-09T00:22:43.561Z,100183.06
2018-07-09T00:25:09.604Z,100182.24
2018-07-09T00:27:35.576Z,100178.08
2018-07-09T00:30:01.516Z,100183.38
2018-07-09T00:32:27.462Z,100181.88
2018-07-09T00:34:53.391Z,100180.92
2018-07-09T00:37:19.332Z,100175.59
2018-07-09T00:39:45.298Z,100172.23
2018-07-09T00:42:11.261Z,100178.16
2018-07-09T00:44:37.215Z,100176.13
2018-07-09T00:47:03.167Z,100184.09
2018-07-09T00:49:29.120Z,100178.52
2018-07-09T00:51:55.076Z,100177.95
2018-07-09T00:54:21.032Z,100173.40
2018-07-09T00:56:47.010Z,100169.28
2018-07-09T00:59:12.980Z,100177.69
2018-07-09T01:01:38.950Z,100174.09
2018-07-09T01:04:04.929Z,100172.42
2018-07-09T01:06:30.890Z,100169.03
2018-07-09T01:08:56.866Z,100168.70
2018-07-09T01:11:22.819Z,100170.92
2018-07-09T01:13:48.799Z,100173.70
2018-07-09T01:16:14.740Z,100169.78
2018-07-09T01:18:40.696Z,100173.20
2018-07-09T01:21:06.656Z,100170.34
2018-07-09T01:23:32.613Z,100163.70
2018-07-09T01:25:58.757Z,100167.00
2018-07-09T01:28:24.694Z,100170.30
2018-07-09T01:30:50.638Z,100167.47
2018-07-09T01:33:16.624Z,100168.81
2018-07-09T01:35:42.599Z,100171.06
2018-07-09T01:38:08.572Z,100167.94
2018-07-09T01:40:34.522Z,100167.63
2018-07-09T01:43:00.492Z,100163.88
2018-07-09T01:45:26.434Z,100161.03
2018-07-09T01:47:52.384Z,100161.06
2018-07-09T01:50:18.379Z,100157.20
2018-07-09T01:52:44.343Z,100152.73
2018-07-09T01:55:10.291Z,100152.88
2018-07-09T01:57:36.240Z,100149.08
2018-07-09T02:00:02.180Z,100151.08
2018-07-09T02:02:28.141Z,100153.47
2018-07-09T02:04:54.151Z,100151.34
2018-07-09T02:07:20.155Z,100151.83
2018-07-09T02:09:46.123Z,100152.33
2018-07-09T02:12:12.068Z,100151.22
2018-07-09T02:14:38.030Z,100150.48
2018-07-09T02:17:03.994Z,100150.75
2018-07-09T02:19:30.541Z,100153.91
2018-07-09T02:21:56.497Z,100158.08
2018-07-09T02:24:22.466Z,100158.63
2018-07-09T02:26:48.535Z,100154.06
2018-07-09T02:29:14.476Z,100159.48
2018-07-09T02:31:40.426Z,100146.57
2018-07-09T02:34:06.401Z,100150.15
2018-07-09T02:36:32.360Z,100159.12
2018-07-09T02:38:58.305Z,100156.64
2018-07-09T02:41:24.261Z,100157.05
2018-07-09T02:43:50.240Z,100160.02
2018-07-09T02:46:16.204Z,100156.75
2018-07-09T02:48:42.132Z,100155.59
2018-07-09T02:51:08.067Z,100159.58
2018-07-09T02:53:34.004Z,100159.59
2018-07-09T02:55:59.968Z,100161.78
2018-07-09T02:58:25.923Z,100162.70
2018-07-09T03:00:52.000Z,100166.50
2018-07-09T03:03:17.891Z,100161.39
2018-07-09T03:05:43.861Z,100163.91
2018-07-09T03:08:09.817Z,100165.50
2018-07-09T03:10:35.797Z,100173.53
2018-07-09T03:13:01.761Z,100175.95
2018-07-09T03:15:27.763Z,100171.81
2018-07-09T03:17:53.734Z,100174.33
2018-07-09T03:20:19.773Z,100173.23
2018-07-09T03:22:45.740Z,100177.60
2018-07-09T03:25:11.785Z,100176.84
2018-07-09T03:27:37.763Z,100187.63
2018-07-09T03:30:03.689Z,100184.16
2018-07-09T03:32:29.688Z,100184.20
2018-07-09T03:34:55.657Z,100183.73
2018-07-09T03:37:21.654Z,100187.85
2018-07-09T03:39:47.616Z,100185.38
2018-07-09T03:42:13.580Z,100180.59
2018-07-09T03:44:39.543Z,100175.81
2018-07-09T03:47:05.568Z,100180.08
2018-07-09T03:49:31.531Z,100185.87
2018-07-09T03:51:57.481Z,100186.09
2018-07-09T03:54:23.433Z,100187.45
2018-07-09T03:56:49.413Z,100188.63
2018-07-09T03:59:15.409Z,100188.20
2018-07-09T04:01:41.400Z,100192.39
2018-07-09T04:04:07.351Z,100199.56
2018-07-09T04:06:33.373Z,100202.59
2018-07-09T04:08:59.332Z,100197.51
2018-07-09T04:11:25.293Z,100196.21
2018-07-09T04:13:51.256Z,100200.52
2018-07-09T04:16:17.240Z,100201.62
2018-07-09T04:18:43.199Z,100202.69
2018-07-09T04:21:09.153Z,100200.45
2018-07-09T04:23:35.116Z,100202.50
2018-07-09T04:26:01.098Z,100198.59
2018-07-09T04:28:27.044Z,100201.06
2018-07-09T04:30:53.005Z,100200.72
2018-07-09T04:33:18.961Z,100202.58
2018-07-09T04:35:44.919Z,100206.95
2018-07-09T04:38:10.858Z,100205.23
2018-07-09T04:40:36.790Z,100200.49
2018-07-09T04:43:03.416Z,100202.49
2018-07-09T04:45:29.372Z,100203.92
2018-07-09T04:47:55.357Z,100202.25
2018-07-09T04:50:21.305Z,100201.91
2018-07-09T04:52:47.278Z,100205.63
2018-07-09T04:55:13.239Z,100198.28
2018-07-09T04:57:39.200Z,100202.50
2018-07-09T05:00:05.148Z,100201.78
2018-07-09T05:02:31.103Z,100202.81
2018-07-09T05:04:57.106Z,100200.97
2018-07-09T05:07:23.079Z,100195.28
2018-07-09T05:09:49.006Z,100204.69
2018-07-09T05:12:14.962Z,100203.02
2018-07-09T05:14:40.960Z,100208.25
2018-07-09T05:17:06.982Z,100201.47
2018-07-09T05:19:32.926Z,100201.05
2018-07-09T05:21:58.900Z,100197.89
2018-07-09T05:24:24.876Z,100203.73
2018-07-09T05:26:50.844Z,100204.64
2018-07-09T05:29:16.781Z,100202.59
2018-07-09T05:31:42.792Z,100197.89
2018-07-09T05:34:08.781Z,100202.02
2018-07-09T05:36:34.760Z,100196.37
2018-07-09T05:39:00.724Z,100196.26
2018-07-09T05:41:26.667Z,100200.56
2018-07-09T05:43:52.727Z,100200.72
2018-07-09T05:46:18.711Z,100198.55
2018-07-09T05:48:44.669Z,100201.59
2018-07-09T05:51:11.747Z,100200.87
2018-07-09T05:53:37.764Z,100203.58
2018-07-09T05:56:03.746Z,100201.28
2018-07-09T05:58:29.743Z,100205.72
2018-07-09T06:00:55.720Z,100200.73
2018-07-09T06:03:21.726Z,100202.83
2018-07-09T06:05:47.661Z,100209.38
2018-07-09T06:08:13.652Z,100202.73
2018-07-09T06:10:39.804Z,100205.54
2018-07-09T06:13:05.804Z,100207.48
2018-07-09T06:15:31.787Z,100211.95
2018-07-09T06:17:57.732Z,100208.19
2018-07-09T06:20:23.752Z,100206.72
2018-07-09T06:22:49.961Z,100211.20
2018-07-09T06:25:15.928Z,100207.20
2018-07-09T06:27:41.966Z,100197.81
2018-07-09T06:30:07.947Z,100209.51
2018-07-09T06:32:33.944Z,100208.30
2018-07-09T06:34:59.916Z,100213.14
2018-07-09T06:37:25.912Z,100216.05
2018-07-09T06:39:51.876Z,100217.91
2018-07-09T06:42:17.847Z,100225.13
2018-07-09T06:44:43.882Z,100225.84
2018-07-09T06:47:09.808Z,100221.46
2018-07-09T06:49:35.812Z,100226.06
2018-07-09T06:52:01.768Z,100225.41
2018-07-09T06:54:27.729Z,100222.17
2018-07-09T06:56:53.679Z,100223.97
2018-07-09T06:59:19.636Z,100221.53
2018-07-09T07:01:45.575Z,100225.69
2018-07-09T07:04:11.568Z,100224.75
2018-07-09T07:06:38.222Z,100221.02
2018-07-09T07:09:04.306Z,100216.65
2018-07-09T07:11:30.293Z,100216.28
2018-07-09T07:13:57.412Z,100211.27
2018-07-09T07:16:23.415Z,100212.67
2018-07-09T07:18:49.369Z,100214.16
2018-07-09T07:21:15.329Z,100208.94
2018-07-09T07:23:41.314Z,100213.55
2018-07-09T07:26:07.273Z,100217.94
2018-07-09T07:28:33.230Z,100217.71
2018-07-09T07:30:59.167Z,100223.57
2018-07-09T07:33:25.145Z,100218.41
2018-07-09T07:35:51.091Z,100213.89
2018-07-09T07:38:17.422Z,100214.36
2018-07-09T07:40:43.377Z,100215.08
2018-07-09T07:43:09.376Z,100214.02
2018-07-09T07:45:35.373Z,100217.56
2018-07-09T07:48:01.328Z,100210.42
2018-07-09T07:50:27.370Z,100217.50
2018-07-09T07:52:53.292Z,100213.31
2018-07-09T07:55:19.262Z,100206.14
2018-07-09T07:57:45.227Z,100205.18
2018-07-09T08:00:11.204Z,100203.97
2018-07-09T08:02:37.162Z,100196.70
2018-07-09T08:05:03.116Z,100192.93
2018-07-09T08:07:29.082Z,100190.08
2018-07-09T08:09:55.030Z,100191.20
2018-07-09T08:14:47.089Z,100184.74
2018-07-09T08:17:12.990Z,100188.77
2018-07-09T08:19:38.973Z,100183.83
2018-07-09T08:22:04.945Z,100186.86
2018-07-09T08:24:30.897Z,100185.63
2018-07-09T08:26:56.840Z,100184.36
2018-07-09T08:29:22.796Z,100185.66
2018-07-09T08:31:48.742Z,100181.84
2018-07-09T08:34:14.752Z,100181.97
2018-07-09T08:36:40.704Z,100181.36
2018-07-09T08:39:06.780Z,100178.01
2018-07-09T08:41:32.756Z,100173.97
2018-07-09T08:43:58.696Z,100172.99
2018-07-09T08:46:24.658Z,100168.13
2018-07-09T08:48:50.618Z,100169.65
2018-07-09T08:51:16.640Z,100166.16
2018-07-09T08:53:42.601Z,100165.08
2018-07-09T08:56:08.560Z,100164.70
2018-07-09T08:58:34.515Z,100161.03
2018-07-09T09:01:00.466Z,100162.19
2018-07-09T09:03:26.412Z,100162.50
2018-07-09T09:05:52.426Z,100150.78
2018-07-09T09:08:18.749Z,100155.33
2018-07-09T09:10:44.735Z,100150.84
2018-07-09T09:13:10.690Z,100149.50
2018-07-09T09:15:36.674Z,100153.66
2018-07-09T09:18:02.633Z,100151.88
2018-07-09T09:20:28.617Z,100155.77
2018-07-09T09:22:54.584Z,100153.19
2018-07-09T09:25:20.551Z,100150.36
2018-07-09T09:27:46.525Z,100152.36
2018-07-09T09:30:12.486Z,100151.76
2018-07-09T09:32:38.432Z,100151.44
2018-07-09T09:35:04.398Z,100149.63
2018-07-09T09:37:30.382Z,100157.29
2018-07-09T09:39:56.361Z,100152.50
2018-07-09T09:42:22.317Z,100150.69
2018-07-09T09:44:48.280Z,100155.16
2018-07-09T09:47:14.248Z,100147.59
2018-07-09T09:49:40.269Z,100147.97
2018-07-09T09:52:06.224Z,100143.47
2018-07-09T09:54:32.182Z,100150.62
2018-07-09T09:56:58.128Z,100141.77
2018-07-09T09:59:24.084Z,100143.98
2018-07-09T10:01:50.044Z,100143.10
2018-07-09T10:04:15.999Z,100144.75
2018-07-09T10:06:41.967Z,100136.72
2018-07-09T10:09:07.927Z,100142.47
2018-07-09T10:11:33.882Z,100133.73
2018-07-09T10:13:59.858Z,100136.23
2018-07-09T10:16:25.812Z,100139.34
2018-07-09T10:18:51.800Z,100135.44
2018-07-09T10:21:17.792Z,100134.59
2018-07-09T10:23:43.737Z,100134.19
2018-07-09T10:26:09.694Z,100125.70
2018-07-09T10:28:35.646Z,100126.08
2018-07-09T10:31:01.668Z,100133.52
2018-07-09T10:33:27.619Z,100122.23
2018-07-09T10:35:53.599Z,100127.80
2018-07-09T10:38:19.571Z,100127.29
2018-07-09T10:40:45.632Z,100122.87
2018-07-09T10:43:11.656Z,100117.23
2018-07-09T10:45:37.621Z,100110.38
2018-07-09T10:48:03.570Z,100112.41
2018-07-09T10:50:29.551Z,100118.66
2018-07-09T10:52:55.506Z,100110.74
2018-07-09T10:55:21.687Z,100101.20
2018-07-09T10:57:47.660Z,100103.45
2018-07-09T11:00:13.610Z,100110.59
2018-07-09T11:02:39.564Z,100105.84
2018-07-09T11:05:05.517Z,100110.19
2018-07-09T11:07:31.493Z,100113.13
2018-07-09T11:09:57.504Z,100099.23
2018-07-09T11:12:23.508Z,100103.67
2018-07-09T11:14:49.478Z,100104.07
2018-07-09T11:17:15.431Z,100103.59
2018-07-09T11:19:41.394Z,100096.73
2018-07-09T11:22:07.381Z,100091.17
2018-07-09T11:24:33.332Z,100097.14
2018-07-09T11:26:59.316Z,100093.97
2018-07-09T11:29:25.263Z,100092.69
2018-07-09T11:31:51.238Z,100088.22
2018-07-09T11:34:17.215Z,100086.34
2018-07-09T11:36:43.187Z,100088.66
2018-07-09T11:39:09.133Z,100084.64
2018-07-09T11:41:35.109Z,100089.11
2018-07-09T11:44:01.071Z,100079.49
2018-07-09T11:46:27.073Z,100087.23
2018-07-09T11:48:53.046Z,100083.77
2018-07-09T11:51:19.023Z,100092.13
2018-07-09T11:53:44.957Z,100089.15
2018-07-09T11:56:11.035Z,100085.76
2018-07-09T11:58:37.045Z,100084.09
2018-07-09T12:01:02.986Z,100096.37
2018-07-09T12:03:28.947Z,100094.56
2018-07-09T12:05:54.876Z,100081.41
2018-07-09T12:08:20.908Z,100088.48
2018-07-09T12:10:46.846Z,100083.47
2018-07-09T12:13:12.814Z,100091.20
2018-07-09T12:15:38.801Z,100087.63
2018-07-09T12:18:04.756Z,100088.37
2018-07-09T12:20:30.766Z,100077.03
2018-07-09T12:22:57.596Z,100088.34
2018-07-09T12:25:24.450Z,100081.48
2018-07-09T12:27:50.576Z,100075.41
2018-07-09T12:30:16.577Z,100078.91
2018-07-09T12:32:42.597Z,100078.94
2018-07-09T12:35:08.619Z,100072.86
2018-07-09T12:37:34.665Z,100076.98
2018-07-09T12:40:00.624Z,100078.94
2018-07-09T12:42:26.624Z,100071.57
2018-07-09T12:44:52.586Z,100072.97
2018-07-09T12:47:18.584Z,100074.84
2018-07-09T12:49:44.586Z,100069.91
2018-07-09T12:52:10.515Z,100068.40
2018-07-09T12:54:36.502Z,100066.27
2018-07-09T12:57:02.453Z,100058.49
2018-07-09T12:59:28.392Z,100053.19
2018-07-09T13:01:54.336Z,100052.45
2018-07-09T13:04:20.317Z,100048.36
2018-07-09T13:06:46.264Z,100046.33
2018-07-09T13:09:12.256Z,100042.27
2018-07-09T13:11:38.201Z,100043.97
2018-07-09T13:14:04.227Z,100039.43
2018-07-09T13:16:30.173Z,100034.27
2018-07-09T13:18:56.145Z,100031.07
2018-07-09T13:21:22.093Z,100039.63
2018-07-09T13:23:48.190Z,100028.49
2018-07-09T13:26:14.173Z,100020.66
2018-07-09T13:28:40.157Z,100009.98
2018-07-09T13:31:06.189Z,100020.92
2018-07-09T13:33:32.090Z,100023.33
2018-07-09T13:35:58.492Z,100027.12
2018-07-09T13:38:24.729Z,100030.84
2018-07-09T13:40:50.660Z,100024.14
2018-07-09T13:43:16.769Z,100023.19
2018-07-09T13:45:42.751Z,100023.19
2018-07-09T13:48:08.714Z,100013.91
2018-07-09T13:50:34.704Z,100024.22
2018-07-09T13:53:00.689Z,100028.94
2018-07-09T13:55:26.703Z,100030.75
2018-07-09T13:57:52.714Z,100019.91
2018-07-09T14:00:18.716Z,100023.33
2018-07-09T14:02:44.785Z,100028.79
2018-07-09T14:05:10.833Z,100025.52
2018-07-09T14:07:36.801Z,100017.77
2018-07-09T14:10:02.739Z,99950.70
2018-07-09T14:12:28.698Z,100015.42
2018-07-09T14:14:54.666Z,100012.08
2018-07-09T14:17:20.663Z,100017.60
2018-07-09T14:19:46.651Z,100006.00
2018-07-09T14:22:12.642Z,100005.38
2018-07-09T14:24:38.583Z,99995.45
2018-07-09T14:27:04.647Z,99988.05
2018-07-09T14:29:30.606Z,99992.13
2018-07-09T14:31:56.597Z,99987.98
2018-07-09T14:34:22.543Z,99981.73
2018-07-09T14:36:48.501Z,99980.67
2018-07-09T14:39:14.436Z,99986.28
2018-07-09T14:41:40.391Z,99974.39
2018-07-09T14:44:06.345Z,99989.78
2018-07-09T14:46:32.313Z,99981.50
2018-07-09T14:48:58.265Z,99974.58
2018-07-09T14:51:24.212Z,99977.31
2018-07-09T14:53:50.183Z,99971.63
2018-07-09T14:56:16.126Z,99966.18
2018-07-09T14:58:42.114Z,99956.94
2018-07-09T15:01:08.102Z,99960.87
2018-07-09T15:03:34.121Z,99958.59
2018-07-09T15:06:00.101Z,99959.50
2018-07-09T15:08:26.089Z,99952.24
2018-07-09T15:10:52.096Z,99962.92
2018-07-09T15:13:18.094Z,99948.06
2018-07-09T15:15:44.082Z,99942.55
2018-07-09T15:18:10.057Z,99939.66
2018-07-09T15:20:36.021Z,99941.25
2018-07-09T15:23:02.082Z,99940.01
2018-07-09T15:25:28.101Z,99937.44
2018-07-09T15:27:54.088Z,99937.91
2018-07-09T15:30:20.083Z,99930.00
2018-07-09T15:32:46.048Z,99934.34
2018-07-09T15:35:12.072Z,99936.52
2018-07-09T15:37:39.217Z,99934.79
2018-07-09T15:40:05.186Z,99935.91
2018-07-09T15:42:31.241Z,99929.30
2018-07-09T15:44:57.189Z,99932.44
2018-07-09T15:47:23.177Z,99922.43
2018-07-09T15:49:49.141Z,99924.61
2018-07-09T15:52:15.109Z,99926.14
2018-07-09T15:54:41.069Z,99923.41
2018-07-09T15:57:07.071Z,99921.82
2018-07-09T15:59:33.095Z,99920.44
2018-07-09T16:01:59.055Z,99925.52
2018-07-09T16:04:25.017Z,99923.02
2018-07-09T16:06:50.998Z,99926.20
2018-07-09T16:09:16.969Z,99919.91
2018-07-09T16:11:42.915Z,99914.91
2018-07-09T16:14:08.921Z,99917.80
2018-07-09T16:16:34.881Z,99916.64
2018-07-09T16:19:00.836Z,99918.99
2018-07-09T16:21:26.822Z,99920.76
2018-07-09T16:23:52.852Z,99914.55
2018-07-09T16:26:18.895Z,99912.55
2018-07-09T16:28:44.914Z,99904.44
2018-07-09T16:31:10.816Z,99907.34
2018-07-09T16:33:36.788Z,99910.21
2018-07-09T16:36:08.337Z,99901.19
2018-07-09T16:38:34.498Z,99903.92
2018-07-09T16:41:00.720Z,99896.70
2018-07-09T16:43:26.838Z,99899.66
2018-07-09T16:45:54.632Z,99902.53
2018-07-09T16:48:20.725Z,99896.32
2018-07-09T16:50:46.839Z,99902.38
2018-07-09T16:53:12.905Z,99903.00
2018-07-09T16:55:38.961Z,99900.88
2018-07-09T16:58:05.216Z,99891.49
2018-07-09T17:00:31.486Z,99888.91
2018-07-09T17:02:57.516Z,99892.16
2018-07-09T17:05:23.651Z,99893.16
2018-07-09T17:07:49.667Z,99890.62
2018-07-09T18:29:44.392Z,99898.45
2018-07-09T18:37:16.351Z,99900.27
2018-07-09T19:27:34.080Z,99919.36
2018-07-09T19:30:04.375Z,99914.76
2018-07-09T20:23:30.729Z,99930.81
2018-07-09T20:25:57.604Z,99933.16
2018-07-09T20:33:33.690Z,99925.42
2018-07-09T20:36:06.022Z,99923.27
2018-07-09T20:38:37.966Z,99927.28
2018-07-09T21:57:23.347Z,99913.45
2018-07-09T23:17:39.404Z,99942.48
2018-07-09T23:20:05.404Z,99951.72
2018-07-09T23:35:21.510Z,99939.06
2018-07-09T23:37:47.567Z,99946.95
2018-07-09T23:40:13.554Z,99944.56
2018-07-09T23:47:43.564Z,99936.55
2018-07-09T23:50:09.735Z,99943.89
2018-07-09T23:52:35.796Z,99947.96
2018-07-09T23:55:01.775Z,99952.59
2018-07-09T23:57:27.838Z,99950.77
